Time;durP1;ratioP1;P1;durP2;ratioP2;P2;SDS_P1;SDS_P2;PMS_P1;PMS_P2;Temp;Humidity;BMP_temperature;BMP_pressure;BME280_temperature;BME280_humidity;BME280_pressure;Samples;Min_cycle;Max_cycle;Signal;HPM_P1;HPM_P2
2022/01/01 00:00:33;;;;;;;21.58;16.23;;;11.40;99.90;;;;;;5034154;28;20398;-77
2022/01/01 00:03:00;;;;;;;20.92;15.65;;;11.40;99.90;;;;;;5027337;28;20448;-78
2022/01/01 00:05:26;;;;;;;19.77;15.70;;;11.40;99.90;;;;;;5018908;28;20029;-78
2022/01/01 00:07:52;;;;;;;19.15;15.95;;;11.40;99.90;;;;;;5021866;28;20470;-78
2022/01/01 00:10:19;;;;;;;22.77;16.92;;;11.50;99.90;;;;;;5028228;28;20079;-78
2022/01/01 00:12:46;;;;;;;19.63;14.88;;;11.50;99.90;;;;;;5015481;28;20033;-80
2022/01/01 00:15:12;;;;;;;21.17;15.80;;;11.50;99.90;;;;;;5012959;28;20030;-79
2022/01/01 00:17:38;;;;;;;20.23;16.00;;;11.50;99.90;;;;;;5012436;28;20502;-77
2022/01/01 00:20:04;;;;;;;19.50;16.13;;;11.50;99.90;;;;;;5013854;28;20021;-78
2022/01/01 00:22:29;;;;;;;19.20;15.63;;;11.50;99.90;;;;;;5012991;28;20026;-78
2022/01/01 00:24:55;;;;;;;20.10;15.50;;;11.50;99.90;;;;;;5012621;28;20026;-77
2022/01/01 00:27:20;;;;;;;19.52;15.57;;;11.40;99.90;;;;;;5012503;28;20033;-77
2022/01/01 00:29:46;;;;;;;17.45;14.82;;;11.50;99.90;;;;;;5013698;28;20080;-78
2022/01/01 00:32:11;;;;;;;20.40;15.30;;;11.50;99.90;;;;;;5012217;28;20068;-78
2022/01/01 00:34:37;;;;;;;20.52;15.88;;;11.50;99.90;;;;;;5012699;28;20702;-78
2022/01/01 00:37:04;;;;;;;20.90;15.57;;;11.50;99.90;;;;;;5012475;28;20125;-77
2022/01/01 00:39:30;;;;;;;19.13;15.18;;;11.50;99.90;;;;;;5013712;28;20041;-78
2022/01/01 00:41:55;;;;;;;20.63;15.15;;;11.50;99.90;;;;;;5013467;28;20026;-78
2022/01/01 00:44:21;;;;;;;19.92;15.27;;;11.50;99.90;;;;;;5012689;28;20018;-80
2022/01/01 00:46:47;;;;;;;21.13;15.35;;;11.50;99.90;;;;;;5019584;28;20099;-78
2022/01/01 00:49:12;;;;;;;23.27;16.17;;;11.50;99.90;;;;;;5018017;28;20022;-78
2022/01/01 00:51:38;;;;;;;21.55;16.85;;;11.40;99.90;;;;;;5011906;28;20025;-79
2022/01/01 00:54:03;;;;;;;21.80;16.00;;;11.40;99.90;;;;;;5012135;28;20026;-77
2022/01/01 00:56:29;;;;;;;21.45;15.98;;;11.40;99.90;;;;;;5011929;28;20034;-78
2022/01/01 00:58:54;;;;;;;21.88;16.50;;;11.40;99.90;;;;;;5012066;28;20406;-79
2022/01/01 01:01:20;;;;;;;22.13;16.73;;;11.40;99.90;;;;;;5011666;28;20466;-79
2022/01/01 01:03:46;;;;;;;21.80;16.50;;;11.40;99.90;;;;;;5013223;28;20479;-79
2022/01/01 01:06:13;;;;;;;21.52;16.85;;;11.40;99.90;;;;;;5012081;28;20076;-79
2022/01/01 01:08:40;;;;;;;20.88;16.50;;;11.30;99.90;;;;;;5012221;28;20117;-80
2022/01/01 01:11:08;;;;;;;24.67;17.45;;;11.30;99.90;;;;;;5011885;28;20493;-80
2022/01/01 01:13:34;;;;;;;21.70;16.20;;;11.40;99.90;;;;;;5011987;28;20022;-81
2022/01/01 01:16:00;;;;;;;21.23;16.60;;;11.30;99.90;;;;;;5011753;28;20033;-80
2022/01/01 01:18:26;;;;;;;20.98;16.33;;;11.30;99.90;;;;;;5003655;28;20105;-80
2022/01/01 01:20:51;;;;;;;24.50;16.58;;;11.30;99.90;;;;;;5011718;28;20029;-80
2022/01/01 01:23:17;;;;;;;23.85;16.85;;;11.30;99.90;;;;;;5011714;28;20076;-80
2022/01/01 01:25:43;;;;;;;22.58;16.67;;;11.30;99.90;;;;;;5011929;28;20030;-80
2022/01/01 01:28:09;;;;;;;22.27;16.70;;;11.30;99.90;;;;;;5013056;28;20501;-80
2022/01/01 01:30:37;;;;;;;23.60;16.92;;;11.30;99.90;;;;;;5011676;28;20034;-80
2022/01/01 01:33:03;;;;;;;23.23;16.95;;;11.30;99.90;;;;;;5011286;28;20475;-81
2022/01/01 01:35:29;;;;;;;20.48;15.88;;;11.30;99.90;;;;;;5011601;28;20030;-80
2022/01/01 01:37:55;;;;;;;21.42;15.95;;;11.30;99.90;;;;;;5012903;28;20025;-80
2022/01/01 01:40:20;;;;;;;20.23;15.60;;;11.30;99.90;;;;;;5011599;28;20146;-80
2022/01/01 01:42:46;;;;;;;23.40;16.33;;;11.30;99.90;;;;;;5011463;28;20022;-80
2022/01/01 01:45:17;;;;;;;22.90;15.95;;;11.30;99.90;;;;;;5011585;28;20034;-80
2022/01/01 01:47:44;;;;;;;20.55;15.75;;;11.30;99.90;;;;;;5011281;28;20026;-79
2022/01/01 01:50:11;;;;;;;21.67;16.88;;;11.30;99.90;;;;;;5011310;28;20120;-78
2022/01/01 01:52:38;;;;;;;22.98;16.27;;;11.30;99.90;;;;;;5011188;28;20036;-80
2022/01/01 01:55:09;;;;;;;20.90;17.30;;;11.40;99.90;;;;;;5011463;28;20033;-80
2022/01/01 01:57:40;;;;;;;21.63;16.20;;;11.40;99.90;;;;;;5012845;28;20022;-81
2022/01/01 02:00:46;;;;;;;22.02;16.55;;;11.40;99.90;;;;;;5012721;28;20018;-80
2022/01/01 02:03:09;;;;;;;20.60;16.30;;;11.40;99.90;;;;;;5012223;28;20395;-80
2022/01/01 02:05:35;;;;;;;21.60;15.55;;;11.40;99.90;;;;;;5011782;28;20034;-79
2022/01/01 02:08:02;;;;;;;21.48;15.50;;;11.40;99.90;;;;;;5015314;28;20585;-80
2022/01/01 02:10:28;;;;;;;20.27;15.63;;;11.40;99.90;;;;;;5015082;28;20030;-80
2022/01/01 02:12:55;;;;;;;22.25;15.82;;;11.40;99.90;;;;;;5014940;28;20076;-80
2022/01/01 02:15:42;;;;;;;23.02;16.95;;;11.40;99.90;;;;;;5015043;28;20029;-80
2022/01/01 02:18:08;;;;;;;23.73;16.95;;;11.40;99.90;;;;;;5008437;28;20022;-80
2022/01/01 02:20:34;;;;;;;21.20;16.10;;;11.40;99.90;;;;;;5015036;28;20549;-80
2022/01/01 02:23:01;;;;;;;21.23;15.23;;;11.40;99.90;;;;;;5014851;28;20471;-80
2022/01/01 02:25:27;;;;;;;22.90;16.35;;;11.40;99.90;;;;;;5015090;28;20084;-80
2022/01/01 02:27:53;;;;;;;21.50;15.50;;;11.40;99.90;;;;;;5015033;28;20129;-79
2022/01/01 02:30:19;;;;;;;22.50;16.27;;;11.40;99.90;;;;;;5014894;28;20084;-79
2022/01/01 02:32:45;;;;;;;21.42;15.98;;;11.40;99.90;;;;;;5015738;28;20026;-79
2022/01/01 02:35:13;;;;;;;22.45;15.82;;;11.40;99.90;;;;;;5014738;28;20099;-82
2022/01/01 02:37:39;;;;;;;20.90;15.32;;;11.40;99.90;;;;;;5014746;28;20625;-80
2022/01/01 02:40:06;;;;;;;19.90;15.48;;;11.40;99.90;;;;;;5014643;28;20026;-80
2022/01/01 02:42:32;;;;;;;19.77;15.45;;;11.40;99.90;;;;;;5014444;28;20022;-81
2022/01/01 02:44:59;;;;;;;20.73;14.73;;;11.40;99.90;;;;;;5014674;28;20402;-80
2022/01/01 02:47:26;;;;;;;21.73;15.52;;;11.40;99.90;;;;;;5014356;28;20025;-80
2022/01/01 02:49:52;;;;;;;19.77;14.95;;;11.40;99.90;;;;;;5014493;28;20026;-80
2022/01/01 02:52:17;;;;;;;23.70;15.63;;;11.40;99.90;;;;;;5014448;28;20084;-79
2022/01/01 02:54:43;;;;;;;17.95;14.20;;;11.40;99.90;;;;;;5014336;28;20054;-82
2022/01/01 02:57:09;;;;;;;20.00;14.95;;;11.40;99.90;;;;;;5014451;28;20064;-79
2022/01/01 02:59:34;;;;;;;20.20;15.63;;;11.40;99.90;;;;;;5014667;28;20025;-80
2022/01/01 03:02:00;;;;;;;18.77;14.45;;;11.40;99.90;;;;;;5015188;28;20033;-80
2022/01/01 03:04:26;;;;;;;19.17;14.23;;;11.40;99.90;;;;;;5014202;28;20018;-80
2022/01/01 03:06:55;;;;;;;20.42;15.02;;;11.40;99.90;;;;;;5014231;28;20057;-80
2022/01/01 03:09:25;;;;;;;20.75;14.80;;;11.40;99.90;;;;;;5014096;28;20030;-79
2022/01/01 03:11:51;;;;;;;20.90;14.80;;;11.40;99.90;;;;;;5013830;28;20112;-79
2022/01/01 03:14:17;;;;;;;21.20;14.50;;;11.40;99.90;;;;;;5014074;28;20506;-80
2022/01/01 03:16:47;;;;;;;18.85;14.10;;;11.40;99.90;;;;;;5040891;22;20042;-80
2022/01/01 03:19:13;;;;;;;20.20;14.40;;;11.40;99.90;;;;;;5041695;28;20391;-81
2022/01/01 03:21:38;;;;;;;18.73;14.32;;;11.40;99.90;;;;;;5035579;28;20030;-81
2022/01/01 03:24:04;;;;;;;21.80;14.00;;;11.40;99.90;;;;;;5047331;28;20022;-81
2022/01/01 03:26:30;;;;;;;20.17;13.68;;;11.40;99.90;;;;;;5051871;28;20074;-81
2022/01/01 03:28:55;;;;;;;21.40;14.82;;;11.40;99.90;;;;;;5034161;28;20033;-81
2022/01/01 03:31:23;;;;;;;21.42;14.27;;;11.40;99.90;;;;;;5033825;28;20025;-81
2022/01/01 03:33:49;;;;;;;19.85;14.00;;;11.40;99.90;;;;;;5034119;28;20486;-81
2022/01/01 03:36:14;;;;;;;18.92;13.85;;;11.40;99.90;;;;;;5033717;28;20029;-80
2022/01/01 03:38:40;;;;;;;17.65;13.35;;;11.40;99.90;;;;;;5035293;28;20502;-81
2022/01/01 03:41:05;;;;;;;20.33;14.15;;;11.40;99.90;;;;;;5033665;28;20025;-81
2022/01/01 03:43:31;;;;;;;17.85;13.35;;;11.40;99.90;;;;;;5034084;28;20499;-80
2022/01/01 03:45:56;;;;;;;19.08;13.55;;;11.40;99.90;;;;;;5033694;28;20470;-78
2022/01/01 03:48:22;;;;;;;19.50;13.00;;;11.40;99.90;;;;;;5029496;28;20026;-81
2022/01/01 03:50:47;;;;;;;19.95;13.07;;;11.40;99.90;;;;;;5034626;28;20064;-80
2022/01/01 03:53:13;;;;;;;18.48;13.07;;;11.40;99.90;;;;;;5034774;28;20025;-81
2022/01/01 03:55:38;;;;;;;18.80;13.32;;;11.40;99.90;;;;;;5033515;28;20029;-81
2022/01/01 03:58:04;;;;;;;19.48;13.73;;;11.40;99.90;;;;;;5034947;28;20032;-81
2022/01/01 04:00:30;;;;;;;18.08;13.10;;;11.40;99.90;;;;;;5033334;28;20550;-81
2022/01/01 04:03:05;;;;;;;17.90;12.98;;;11.50;99.90;;;;;;5033045;28;20022;-81
2022/01/01 04:05:31;;;;;;;17.60;13.02;;;11.40;99.90;;;;;;5034748;28;20029;-81
2022/01/01 04:07:56;;;;;;;18.33;13.10;;;11.40;99.90;;;;;;5035605;28;20022;-82
2022/01/01 04:10:22;;;;;;;18.63;13.40;;;11.40;99.90;;;;;;5035166;28;20026;-82
2022/01/01 04:12:47;;;;;;;17.63;13.38;;;11.40;99.90;;;;;;5034909;28;20022;-82
2022/01/01 04:15:12;;;;;;;18.55;13.45;;;11.40;99.90;;;;;;5035038;28;20039;-81
2022/01/01 04:17:38;;;;;;;16.10;12.20;;;11.40;99.90;;;;;;5035602;28;20056;-81
2022/01/01 04:20:05;;;;;;;17.75;12.85;;;11.40;99.90;;;;;;5034601;28;20018;-81
2022/01/01 04:22:31;;;;;;;19.35;14.13;;;11.40;99.90;;;;;;5034710;28;20026;-81
2022/01/01 04:24:56;;;;;;;17.77;13.40;;;11.40;99.90;;;;;;5034123;28;20471;-81
2022/01/01 04:27:22;;;;;;;18.70;13.30;;;11.40;99.90;;;;;;5034584;28;20029;-81
2022/01/01 04:29:47;;;;;;;18.70;13.45;;;11.40;99.90;;;;;;5034017;28;20025;-82
2022/01/01 04:32:14;;;;;;;16.67;12.27;;;11.40;99.90;;;;;;5033683;28;20029;-81
2022/01/01 04:34:39;;;;;;;19.33;13.30;;;11.40;99.90;;;;;;5033670;28;20040;-81
2022/01/01 04:37:11;;;;;;;17.88;13.15;;;11.40;99.90;;;;;;5033772;28;20037;-82
2022/01/01 04:39:37;;;;;;;;;;;11.40;99.90;;;;;;5034095;28;20379;-81
2022/01/01 04:42:03;;;;;;;19.55;12.88;;;11.40;99.90;;;;;;5033680;28;19912;-81
2022/01/01 04:44:28;;;;;;;19.70;12.65;;;11.40;99.90;;;;;;5033915;28;20025;-81
2022/01/01 04:46:54;;;;;;;18.25;13.35;;;11.40;99.90;;;;;;5035035;28;20033;-82
2022/01/01 04:49:19;;;;;;;20.48;13.13;;;11.40;99.90;;;;;;5032512;28;20033;-81
2022/01/01 04:51:45;;;;;;;19.73;13.50;;;11.40;99.90;;;;;;5033124;28;20120;-81
2022/01/01 04:54:15;;;;;;;17.48;12.50;;;11.40;99.90;;;;;;5033169;28;20025;-81
2022/01/01 04:56:47;;;;;;;17.27;12.80;;;11.50;99.90;;;;;;5034267;28;20482;-81
2022/01/01 04:59:13;;;;;;;;;;;11.50;99.90;;;;;;5033290;28;20075;-81
2022/01/01 05:01:43;;;;;;;17.30;12.65;;;11.50;99.90;;;;;;5032657;28;20059;-81
2022/01/01 05:04:09;;;;;;;17.10;12.43;;;11.50;99.90;;;;;;5032773;28;20021;-82
2022/01/01 05:06:35;;;;;;;19.17;13.38;;;11.50;99.90;;;;;;5032654;28;20083;-81
2022/01/01 05:09:01;;;;;;;18.40;12.57;;;11.50;99.90;;;;;;5032726;28;20505;-81
2022/01/01 05:11:27;;;;;;;16.63;12.85;;;11.50;99.90;;;;;;5032599;28;20032;-81
2022/01/01 05:13:53;;;;;;;20.20;13.48;;;11.50;99.90;;;;;;5034789;28;20025;-82
2022/01/01 05:16:19;;;;;;;18.92;12.77;;;11.60;99.90;;;;;;5033545;28;20029;-81
2022/01/01 05:18:46;;;;;;;18.17;12.07;;;11.50;99.90;;;;;;5033709;28;20036;-82
2022/01/01 05:21:12;;;;;;;16.00;12.15;;;11.50;99.90;;;;;;5035008;28;20030;-81
2022/01/01 05:23:37;;;;;;;17.08;12.75;;;11.60;99.90;;;;;;5033823;28;20029;-81
2022/01/01 05:26:03;;;;;;;17.75;12.15;;;11.60;99.90;;;;;;5034214;28;20028;-81
2022/01/01 05:28:29;;;;;;;16.38;12.15;;;11.50;99.90;;;;;;5033679;28;20041;-81
2022/01/01 05:30:54;;;;;;;17.50;11.90;;;11.60;99.90;;;;;;5033424;28;20252;-81
2022/01/01 05:33:20;;;;;;;16.98;11.93;;;11.60;99.90;;;;;;5034550;28;20403;-81
2022/01/01 05:35:45;;;;;;;18.98;12.60;;;11.60;99.90;;;;;;5033115;28;20166;-81
2022/01/01 05:38:11;;;;;;;18.65;13.27;;;11.60;99.90;;;;;;5033311;28;20026;-81
2022/01/01 05:40:37;;;;;;;18.70;12.77;;;11.60;99.90;;;;;;5033666;28;20395;-81
2022/01/01 05:43:02;;;;;;;17.80;12.75;;;11.50;99.90;;;;;;5034306;28;20022;-81
2022/01/01 05:45:28;;;;;;;20.98;13.93;;;11.60;99.90;;;;;;5033022;28;20061;-81
2022/01/01 05:47:53;;;;;;;18.88;13.32;;;11.50;99.90;;;;;;5025883;28;20482;-81
2022/01/01 05:50:20;;;;;;;18.38;12.85;;;11.50;99.90;;;;;;5033639;28;20080;-81
2022/01/01 05:52:46;;;;;;;18.90;13.00;;;11.50;99.90;;;;;;5032450;28;20466;-81
2022/01/01 05:55:12;;;;;;;17.70;13.25;;;11.50;99.90;;;;;;5032383;28;20071;-81
2022/01/01 05:57:38;;;;;;;18.58;13.20;;;11.50;99.90;;;;;;5033298;28;20018;-81
2022/01/01 06:00:07;;;;;;;21.17;13.65;;;11.50;99.90;;;;;;5032321;28;20029;-81
2022/01/01 06:02:39;;;;;;;17.83;12.43;;;11.40;99.90;;;;;;5031814;28;20109;-81
2022/01/01 06:05:04;;;;;;;18.55;13.63;;;11.50;99.90;;;;;;5032780;28;20021;-82
2022/01/01 06:07:30;;;;;;;20.35;13.55;;;11.40;99.90;;;;;;5032502;28;20112;-81
2022/01/01 06:09:55;;;;;;;19.50;13.65;;;11.40;99.90;;;;;;5032255;28;20074;-81
2022/01/01 06:12:21;;;;;;;19.75;13.52;;;11.40;99.90;;;;;;5033240;28;20033;-81
2022/01/01 06:14:46;;;;;;;20.40;13.25;;;11.40;99.90;;;;;;5032337;28;20017;-81
2022/01/01 06:17:13;;;;;;;19.17;13.70;;;11.50;99.90;;;;;;5032061;28;20390;-81
2022/01/01 06:19:38;;;;;;;20.60;13.45;;;11.40;99.90;;;;;;5032697;28;20116;-81
2022/01/01 06:22:04;;;;;;;18.90;13.18;;;11.40;99.90;;;;;;5032317;28;20473;-81
2022/01/01 06:24:29;;;;;;;21.95;14.00;;;11.40;99.90;;;;;;5033713;28;20017;-81
2022/01/01 06:26:55;;;;;;;19.42;13.15;;;11.40;99.90;;;;;;5032113;28;20041;-81
2022/01/01 06:29:20;;;;;;;20.08;13.48;;;11.40;99.90;;;;;;5014601;28;20030;-81
2022/01/01 06:31:46;;;;;;;18.73;13.50;;;11.40;99.90;;;;;;5013477;28;20486;-81
2022/01/01 06:34:11;;;;;;;19.63;12.90;;;11.40;99.90;;;;;;5012034;28;20038;-81
2022/01/01 06:36:37;;;;;;;16.58;12.15;;;11.40;99.90;;;;;;5013241;28;20090;-81
2022/01/01 06:39:03;;;;;;;19.67;12.70;;;11.40;99.90;;;;;;5012353;28;20120;-81
2022/01/01 06:41:28;;;;;;;19.20;13.50;;;11.40;99.90;;;;;;5011457;28;20030;-81
2022/01/01 06:43:54;;;;;;;18.52;12.43;;;11.40;99.90;;;;;;5011852;28;20030;-81
2022/01/01 06:46:19;;;;;;;20.70;13.77;;;11.40;99.90;;;;;;5011857;28;20029;-81
2022/01/01 06:48:45;;;;;;;18.13;13.52;;;11.40;99.90;;;;;;5024437;28;20502;-81
2022/01/01 06:51:10;;;;;;;19.25;13.05;;;11.40;99.90;;;;;;5031168;28;20032;-81
2022/01/01 06:53:36;;;;;;;18.33;13.02;;;11.50;99.90;;;;;;5034766;28;20494;-81
2022/01/01 06:56:05;;;;;;;20.42;13.93;;;11.40;99.90;;;;;;5034759;28;20032;-81
2022/01/01 06:58:31;;;;;;;19.92;13.05;;;11.40;99.90;;;;;;5034510;28;20022;-81
2022/01/01 07:00:57;;;;;;;20.48;13.23;;;11.50;99.90;;;;;;5034586;28;20026;-78
2022/01/01 07:03:23;;;;;;;20.80;14.73;;;11.40;99.90;;;;;;5034513;28;20521;-81
2022/01/01 07:05:49;;;;;;;20.13;14.32;;;11.40;99.90;;;;;;5035831;28;20025;-81
2022/01/01 07:08:14;;;;;;;21.15;13.98;;;11.40;99.90;;;;;;5034177;28;20026;-81
2022/01/01 07:10:41;;;;;;;19.58;13.13;;;11.40;99.90;;;;;;5034462;28;20025;-81
2022/01/01 07:13:07;;;;;;;19.17;13.25;;;11.40;99.90;;;;;;5036987;28;20026;-82
2022/01/01 07:15:33;;;;;;;19.88;13.40;;;11.50;99.90;;;;;;5036221;28;20028;-82
2022/01/01 07:17:58;;;;;;;20.17;14.27;;;11.40;99.90;;;;;;5035928;28;20045;-81
2022/01/01 07:20:24;;;;;;;19.38;13.30;;;11.40;99.90;;;;;;5037344;28;20103;-82
2022/01/01 07:22:49;;;;;;;21.30;13.70;;;11.50;99.90;;;;;;5036063;28;20033;-81
2022/01/01 07:25:15;;;;;;;18.90;13.90;;;11.40;99.90;;;;;;5036055;28;20048;-81
2022/01/01 07:27:41;;;;;;;23.27;14.23;;;11.50;99.90;;;;;;5035587;28;20025;-81
2022/01/01 07:30:08;;;;;;;18.42;13.07;;;11.50;99.90;;;;;;5035748;28;20116;-81
2022/01/01 07:32:38;;;;;;;21.85;14.02;;;11.50;99.90;;;;;;5035397;28;20053;-81
2022/01/01 07:35:04;;;;;;;20.23;12.57;;;11.40;99.90;;;;;;5036337;28;20039;-81
2022/01/01 07:37:30;;;;;;;20.58;13.05;;;11.40;99.90;;;;;;5035038;28;20078;-81
2022/01/01 07:39:55;;;;;;;19.80;13.65;;;11.50;99.90;;;;;;5035546;28;20033;-81
2022/01/01 07:42:21;;;;;;;20.88;13.68;;;11.50;99.90;;;;;;5036205;28;20453;-81
2022/01/01 07:44:46;;;;;;;21.80;14.05;;;11.50;99.90;;;;;;5034846;28;20021;-81
2022/01/01 07:47:12;;;;;;;20.23;13.95;;;11.50;99.90;;;;;;5034658;28;20124;-81
2022/01/01 07:49:37;;;;;;;23.75;13.13;;;11.50;99.90;;;;;;5035869;28;20030;-81
2022/01/01 07:52:03;;;;;;;20.42;13.63;;;11.50;99.90;;;;;;5034066;28;20025;-81
2022/01/01 07:54:28;;;;;;;19.88;13.80;;;11.30;99.90;;;;;;5034540;28;20026;-81
2022/01/01 07:56:54;;;;;;;18.80;13.07;;;11.50;99.90;;;;;;5034381;28;20548;-81
2022/01/01 07:59:19;;;;;;;20.52;13.32;;;11.50;99.90;;;;;;5035551;28;20105;-81
2022/01/01 08:01:45;;;;;;;19.73;13.23;;;11.50;99.90;;;;;;5033854;28;20075;-81
2022/01/01 08:04:11;;;;;;;22.13;12.85;;;11.50;99.90;;;;;;5033768;28;20014;-81
2022/01/01 08:06:36;;;;;;;19.98;13.18;;;11.50;99.90;;;;;;5034033;28;20061;-81
2022/01/01 08:09:03;;;;;;;19.75;13.00;;;11.50;99.90;;;;;;5035625;28;20033;-81
2022/01/01 08:11:29;;;;;;;19.40;12.70;;;11.50;99.90;;;;;;5033874;28;20029;-81
2022/01/01 08:13:54;;;;;;;19.08;12.65;;;11.50;99.90;;;;;;5033769;28;20032;-81
2022/01/01 08:16:21;;;;;;;19.77;12.90;;;11.50;99.90;;;;;;5034964;28;20071;-81
2022/01/01 08:18:48;;;;;;;19.80;12.80;;;11.50;99.90;;;;;;5032692;28;20421;-81
2022/01/01 08:21:13;;;;;;;18.48;12.65;;;11.50;99.90;;;;;;5034260;28;20025;-81
2022/01/01 08:23:39;;;;;;;19.52;12.80;;;11.50;99.90;;;;;;5022528;28;20033;-81
2022/01/01 08:26:05;;;;;;;18.50;12.65;;;11.50;99.90;;;;;;5041109;28;20032;-81
2022/01/01 08:28:31;;;;;;;21.80;12.73;;;11.50;99.90;;;;;;5033816;28;20501;-81
2022/01/01 08:30:56;;;;;;;19.80;12.98;;;11.50;99.90;;;;;;5032904;28;20445;-80
2022/01/01 08:33:22;;;;;;;18.77;12.82;;;11.50;99.90;;;;;;5032426;28;20037;-79
2022/01/01 08:35:48;;;;;;;19.48;12.85;;;11.50;99.90;;;;;;5033468;28;20026;-79
2022/01/01 08:38:13;;;;;;;21.10;12.23;;;11.50;99.90;;;;;;5012753;28;20058;-79
2022/01/01 08:40:40;;;;;;;19.25;13.02;;;11.50;99.90;;;;;;5013383;28;20022;-81
2022/01/01 08:43:05;;;;;;;17.17;12.07;;;11.50;99.90;;;;;;5013605;28;20038;-79
2022/01/01 08:45:32;;;;;;;21.00;13.38;;;11.50;99.90;;;;;;5013284;28;20025;-80
2022/01/01 08:47:57;;;;;;;19.60;12.82;;;11.50;99.90;;;;;;5012952;28;20543;-79
2022/01/01 08:50:23;;;;;;;18.70;12.05;;;11.50;99.90;;;;;;5028093;28;20108;-81
2022/01/01 08:52:49;;;;;;;21.15;12.68;;;11.50;99.90;;;;;;5030988;28;20115;-80
2022/01/01 08:55:14;;;;;;;20.52;12.45;;;11.50;99.90;;;;;;5031532;28;20090;-80
2022/01/01 08:57:40;;;;;;;19.45;12.10;;;11.50;99.90;;;;;;5030640;28;20045;-78
2022/01/01 09:00:09;;;;;;;20.02;11.82;;;11.50;99.90;;;;;;5031954;28;20030;-80
2022/01/01 09:02:35;;;;;;;18.20;11.60;;;11.50;99.90;;;;;;5031796;28;20025;-80
2022/01/01 09:05:01;;;;;;;19.85;12.27;;;11.50;99.90;;;;;;5030871;28;20028;-81
2022/01/01 09:07:29;;;;;;;18.58;12.18;;;11.50;99.90;;;;;;5030949;28;20456;-81
2022/01/01 09:09:58;;;;;;;20.90;12.80;;;11.50;99.90;;;;;;5031615;28;20093;-81
2022/01/01 09:12:25;;;;;;;18.92;12.15;;;11.50;99.90;;;;;;5032566;28;20116;-80
2022/01/01 09:14:51;;;;;;;20.17;12.60;;;11.50;99.90;;;;;;5030593;28;20100;-80
2022/01/01 09:17:17;;;;;;;17.02;11.48;;;11.50;99.90;;;;;;5032021;28;20613;-81
2022/01/01 09:19:42;;;;;;;17.20;11.85;;;11.50;99.90;;;;;;5031282;28;20053;-80
2022/01/01 09:22:08;;;;;;;17.73;11.45;;;11.50;99.90;;;;;;5037257;28;20028;-80
2022/01/01 09:24:34;;;;;;;18.00;11.63;;;11.50;99.90;;;;;;5034182;28;20433;-80
2022/01/01 09:26:59;;;;;;;18.83;12.05;;;11.50;99.90;;;;;;5034702;28;20021;-79
2022/01/01 09:29:25;;;;;;;18.10;12.10;;;11.50;99.90;;;;;;5031644;28;20695;-81
2022/01/01 09:31:50;;;;;;;19.70;11.77;;;11.50;99.90;;;;;;5011252;28;20475;-82
2022/01/01 09:34:16;;;;;;;17.63;12.23;;;11.50;99.90;;;;;;5035542;28;20033;-81
2022/01/01 09:36:43;;;;;;;17.52;11.95;;;11.50;99.90;;;;;;5035273;28;20025;-82
2022/01/01 09:39:09;;;;;;;19.17;11.73;;;11.60;99.90;;;;;;5035110;28;20136;-80
2022/01/01 09:41:40;;;;;;;16.27;11.25;;;11.60;99.90;;;;;;5030356;28;20120;-81
2022/01/01 09:44:15;;;;;;;18.63;10.68;;;11.70;99.90;;;;;;5030587;28;20029;-80
2022/01/01 09:46:44;;;;;;;16.80;11.20;;;11.60;99.90;;;;;;5030677;28;20127;-80
2022/01/01 09:49:10;;;;;;;19.35;12.05;;;11.60;99.90;;;;;;5030480;28;20683;-80
2022/01/01 09:51:35;;;;;;;17.48;11.60;;;11.70;99.90;;;;;;5031370;28;20031;-81
2022/01/01 09:54:02;;;;;;;17.42;10.63;;;11.70;99.90;;;;;;5033067;28;20021;-81
2022/01/01 09:56:27;;;;;;;17.08;11.00;;;11.70;99.90;;;;;;5030337;28;20032;-81
2022/01/01 09:58:53;;;;;;;16.80;10.68;;;11.70;99.90;;;;;;5030514;28;20017;-81
2022/01/01 10:01:18;;;;;;;15.80;10.35;;;11.70;99.90;;;;;;5030482;28;20020;-80
2022/01/01 10:03:48;;;;;;;15.95;10.57;;;11.70;99.90;;;;;;5030773;28;20502;-82
2022/01/01 10:06:16;;;;;;;17.15;10.48;;;11.80;99.90;;;;;;5033919;28;20048;-81
2022/01/01 10:08:46;;;;;;;16.70;10.52;;;11.80;99.90;;;;;;5030135;28;20052;-82
2022/01/01 10:11:16;;;;;;;17.23;10.45;;;11.80;99.90;;;;;;5031145;28;20017;-80
2022/01/01 10:13:43;;;;;;;17.45;10.23;;;11.90;99.90;;;;;;5033611;28;20424;-81
2022/01/01 10:16:10;;;;;;;15.00;9.95;;;11.90;99.90;;;;;;5044732;28;20059;-81
2022/01/01 10:18:39;;;;;;;16.17;9.25;;;12.00;99.90;;;;;;5049942;28;20040;-81
2022/01/01 10:21:10;;;;;;;17.92;10.45;;;11.90;99.90;;;;;;5054675;28;20028;-82
2022/01/01 10:23:38;;;;;;;16.58;9.55;;;11.90;99.90;;;;;;5056319;28;20093;-82
2022/01/01 10:29:00;;;;;;;16.23;9.38;;;11.90;99.90;;;;;;5015825;22;20129;-81
2022/01/01 10:32:00;;;;;;;17.33;9.48;;;11.90;99.90;;;;;;4991544;28;20124;-82
2022/01/01 10:37:45;;;;;;;;;;;;;;;;;;;;;
2022/01/01 10:40:49;;;;;;;;;;;11.80;99.90;;;;;;5017084;28;20036;-82
2022/01/01 10:46:49;;;;;;;14.85;9.25;;;11.80;99.90;;;;;;4940311;28;20091;-82
2022/01/01 10:52:22;;;;;;;14.70;8.75;;;11.80;99.90;;;;;;5013809;28;20026;-82
2022/01/01 10:54:53;;;;;;;15.50;8.93;;;11.80;99.90;;;;;;4996525;28;20085;-81
2022/01/01 10:57:27;;;;;;;13.98;9.05;;;11.80;99.90;;;;;;4990093;28;20033;-81
2022/01/01 11:00:07;;;;;;;13.18;8.50;;;11.80;99.90;;;;;;4994308;28;20019;-81
2022/01/01 11:02:34;;;;;;;13.80;8.27;;;11.80;99.90;;;;;;4976754;28;20018;-81
2022/01/01 11:05:00;;;;;;;14.38;8.88;;;11.80;99.90;;;;;;4976687;28;20037;-80
2022/01/01 11:07:27;;;;;;;15.48;8.98;;;11.90;99.90;;;;;;4976730;28;20106;-83
2022/01/01 11:09:54;;;;;;;14.13;8.48;;;11.90;99.90;;;;;;4976511;28;20057;-81
2022/01/01 11:12:21;;;;;;;14.65;8.23;;;11.90;99.90;;;;;;4975549;28;20023;-81
2022/01/01 11:14:47;;;;;;;13.88;8.80;;;11.80;99.90;;;;;;4975533;28;20773;-83
2022/01/01 11:17:13;;;;;;;16.08;7.88;;;11.80;99.90;;;;;;4976549;28;20030;-84
2022/01/01 11:19:40;;;;;;;13.00;7.95;;;11.80;99.90;;;;;;4976083;28;20034;-82
2022/01/01 11:22:06;;;;;;;13.88;7.95;;;11.80;99.90;;;;;;4975591;28;20062;-83
2022/01/01 11:24:33;;;;;;;14.80;8.00;;;11.80;99.90;;;;;;4975534;28;20031;-82
2022/01/01 11:27:00;;;;;;;16.77;8.90;;;11.80;99.90;;;;;;4992393;28;20483;-82
2022/01/01 11:29:26;;;;;;;16.17;8.45;;;11.80;99.90;;;;;;4992185;28;20108;-83
2022/01/01 11:31:54;;;;;;;17.63;8.98;;;11.80;99.90;;;;;;4996312;28;20113;-82
2022/01/01 11:34:19;;;;;;;13.02;7.50;;;11.80;99.90;;;;;;4996284;28;20032;-83
2022/01/01 11:36:46;;;;;;;15.38;8.38;;;11.80;99.90;;;;;;4977146;28;20341;-83
2022/01/01 11:39:13;;;;;;;16.05;8.38;;;11.80;99.90;;;;;;4977202;28;20022;-83
2022/01/01 11:41:44;;;;;;;13.73;8.25;;;11.80;99.90;;;;;;4977304;28;20022;-82
2022/01/01 11:44:32;;;;;;;13.65;8.23;;;11.80;99.90;;;;;;4977977;28;20077;-84
2022/01/01 11:47:03;;;;;;;13.50;7.70;;;11.80;99.90;;;;;;4977869;28;20041;-83
2022/01/01 11:49:29;;;;;;;13.35;8.13;;;11.80;99.90;;;;;;4978137;28;20026;-83
2022/01/01 11:51:57;;;;;;;14.52;7.55;;;11.70;99.90;;;;;;4977064;28;20570;-83
2022/01/01 11:54:32;;;;;;;13.88;7.55;;;11.80;99.90;;;;;;4994985;28;20030;-83
2022/01/01 11:57:05;;;;;;;14.38;7.57;;;11.80;99.90;;;;;;4976653;28;20312;-83
2022/01/01 11:59:37;;;;;;;13.60;7.57;;;11.80;99.90;;;;;;4976731;28;20054;-82
2022/01/01 12:02:12;;;;;;;12.25;7.43;;;11.80;99.90;;;;;;4994087;28;20498;-82
2022/01/01 12:04:42;;;;;;;12.52;7.43;;;11.80;99.90;;;;;;4994367;28;20027;-82
2022/01/01 12:07:20;;;;;;;13.52;7.65;;;11.80;99.90;;;;;;4972225;28;20026;-83
2022/01/01 12:09:57;;;;;;;12.52;7.07;;;11.80;99.90;;;;;;4976594;28;20345;-83
2022/01/01 12:12:41;;;;;;;14.20;7.18;;;11.80;99.90;;;;;;4995942;28;20022;-82
2022/01/01 12:15:24;;;;;;;11.45;6.20;;;11.80;99.90;;;;;;4983799;28;20034;-82
2022/01/01 12:17:53;;;;;;;13.52;7.30;;;11.80;99.90;;;;;;5009547;28;20060;-81
2022/01/01 12:20:21;;;;;;;14.07;6.60;;;11.80;99.90;;;;;;4994143;28;20030;-82
2022/01/01 12:22:48;;;;;;;11.77;6.40;;;11.80;99.90;;;;;;5009761;28;20026;-82
2022/01/01 12:25:15;;;;;;;13.05;6.60;;;11.80;99.90;;;;;;4992969;28;20132;-82
2022/01/01 12:27:48;;;;;;;10.43;6.18;;;11.80;99.90;;;;;;4988944;28;20621;-82
2022/01/01 12:30:32;;;;;;;12.02;6.28;;;11.80;99.90;;;;;;4990086;28;20036;-82
2022/01/01 12:32:58;;;;;;;10.23;6.35;;;11.80;99.90;;;;;;4990073;28;20097;-82
2022/01/01 12:35:47;;;;;;;12.93;7.03;;;11.90;99.90;;;;;;4991252;28;20033;-82
2022/01/01 12:38:17;;;;;;;11.13;6.45;;;11.80;99.90;;;;;;4990448;28;20057;-84
2022/01/01 12:41:29;;;;;;;13.57;6.38;;;11.80;99.90;;;;;;4990719;28;20109;-85
2022/01/01 12:44:00;;;;;;;11.30;5.60;;;11.90;99.90;;;;;;4991334;28;20559;-81